Pico Rivera, California
Current Conditions -  °F | °C
As of 9:53 PM on Wednesday 26 Nov 2014 (Local Time) from KFUL Reporting Station
Clear Clear  
Wind Chill: 59°   Ceiling: Unl
Heat Index: 59°   Visibility: 10mi
Dew Point: 37°   Wind: 0mph
Humidity: 44%   Direction: NA
Pressure: 30.12"   Gusts: NA
Location:  33.98°N, 118.08°W
Report Text: KFUL 270553Z 00000KT 10SM CLR 15/03 A3012 RMK AO2 SLP198 T01500028 10289 20150 58001
Loading
Personal Weather Stations






























Interactive Weather Map New forecast layout! Learn more

10-Day Weather Forecast

Advertisements
Track Severe Weather on mobile